Chicago Rockford International Airport
KRFD : now visible

Airfield :











YOU CAN JOIN US ON...

 
LOGIN :

Register | Disclaimer

   EN    FR    IT 

 









Legend :    VFR   Marginal VFR   IFR   Intensive IFR   Very Intensive IFR
Visi :
Ceiling :
>= 8 km
>= 3000ft
5 to 8 km
1000 to 3000 ft
1500m to 5 km
500 to 1000 ft
800 to 1500m
200 to 500 ft
< 800m
< 200 ft
Symbols :   Thunderstorms  Fog  Heavy snow  Heavy precipitations  Wind > 20 kt







- Airport Elevation : 742 ft
- IATA code : RFD


KRFD - Chicago Rockford International

CURRENT METAR :
  • 230754Z 00000KT 10SM CLR 16/12 A3016 RMK AO2 SLP210 T01560122

EXPIRED METARs :
  • 230654Z 03003KT 10SM CLR 16/12 A3016 RMK AO2 SLP210 T01560122
  • 230554Z 06003KT 10SM CLR 16/13 A3015 RMK AO2 SLP206 T01560128 10228 20156 402610150 53017

TAF KRFD
Valid from the 23 at 06:00 until the 24 at 06:00 UTC


230531Z 2306/2406 05005KT P6SM FEW060 FEW250
FM231400 07009KT P6SM SCT050
FM240000 07005KT P6SM SKC
No reported NOTAMs for that airfield.



MET'MAP, your aeronautical weather chart ! - Copyright ORBIFLY December 2007 - Disclaimer

ORBIFLY MET'MAP TEAM :

Programming & Development : Alexandra Zaïnal
Concept & Development : Baudouin d'Aumeries
Co-Development & Prog : Marc-Olivier Méhu
Technical & hardware support : Manuel Goepfert

Contact : metmap@orbifly.com




SOURCES & CREDITS :

   NOAA       Earth
Advisory